LOT2005 EPWR-RKSI
Flight info
| Callsign | LOT2005 |
|---|---|
| Flight time | N/A |
| Altitude | 37000 |
| Route | MOFKE T714 MAPIK DCT KELEL DCT KARIL DCT UDROS UN743 GAKSU UN644 ROLIN N644 LAGAS M747 SUBUT T916 LEYLA N161 GASBI/K0893F370 N161 ARLIF/K0896F390 N161 SARIN/K0887S1190 A368 FKG W188 LIKMI/K0895S1250 W188 GOVSA W66 DKO W69 HUR B339 LADIX W34 VAPGU W100 ORAVA W201 UNSEK A326 DONVO G597 AGAVO/N0484F410 Y644 REBIT REBIT2H |
| Aircraft | B789/H-SADE1E2E3FGHIJ1J2J3J4J5M1P2RVWXYZ/SB2D1G1 |
Departure
| Time | 2026-05-04 06:06 |
|---|---|
| Airport | Copernicus Wrocław Airport (EPWR) |
Arrival
| Time | N/A |
|---|---|
| Airport | Incheon International Airport (RKSI) |
| Time | Latitude | Longitude | Altitude | Speed | Heading |
|---|---|---|---|---|---|
| 2026-05-04 05:15 | 51.10890 | 16.87876 | 408 ft | 0 kts | 25° |
| 2026-05-04 05:47 | 51.10878 | 16.87862 | 407 ft | 2 kts | 51° |
| 2026-05-04 05:48 | 51.10871 | 16.87839 | 403 ft | 2 kts | 81° |
| 2026-05-04 05:48 | 51.10872 | 16.87815 | 403 ft | 2 kts | 110° |
| 2026-05-04 05:48 | 51.10872 | 16.87812 | 403 ft | 0 kts | 113° |
| 2026-05-04 05:54 | 51.10838 | 16.87890 | 408 ft | 11 kts | 128° |
| 2026-05-04 05:55 | 51.10798 | 16.87983 | 408 ft | 10 kts | 121° |
| 2026-05-04 05:55 | 51.10766 | 16.88078 | 408 ft | 11 kts | 118° |
| 2026-05-04 05:55 | 51.10728 | 16.88198 | 408 ft | 13 kts | 116° |
| 2026-05-04 05:55 | 51.10689 | 16.88324 | 408 ft | 13 kts | 116° |
| 2026-05-04 05:56 | 51.10648 | 16.88457 | 408 ft | 14 kts | 116° |
| 2026-05-04 05:56 | 51.10603 | 16.88602 | 408 ft | 15 kts | 116° |
| 2026-05-04 05:56 | 51.10554 | 16.88759 | 408 ft | 16 kts | 116° |
| 2026-05-04 05:56 | 51.10503 | 16.88924 | 408 ft | 16 kts | 116° |
| 2026-05-04 05:57 | 51.10454 | 16.89083 | 408 ft | 16 kts | 116° |
| 2026-05-04 05:57 | 51.10407 | 16.89237 | 404 ft | 15 kts | 116° |
| 2026-05-04 05:57 | 51.10363 | 16.89386 | 408 ft | 15 kts | 116° |
| 2026-05-04 05:57 | 51.10319 | 16.89529 | 408 ft | 14 kts | 116° |
| 2026-05-04 05:58 | 51.10277 | 16.89662 | 408 ft | 13 kts | 116° |
| 2026-05-04 05:58 | 51.10237 | 16.89791 | 408 ft | 13 kts | 116° |
| 2026-05-04 05:58 | 51.10203 | 16.89900 | 406 ft | 8 kts | 116° |
| 2026-05-04 05:58 | 51.10177 | 16.89954 | 408 ft | 4 kts | 149° |
| 2026-05-04 05:59 | 51.10140 | 16.89963 | 408 ft | 7 kts | 187° |
| 2026-05-04 05:59 | 51.10094 | 16.89934 | 406 ft | 7 kts | 206° |
| 2026-05-04 05:59 | 51.10046 | 16.89897 | 408 ft | 8 kts | 206° |
| 2026-05-04 05:59 | 51.10033 | 16.89887 | 408 ft | 0 kts | 206° |
| 2026-05-04 06:03 | 51.10032 | 16.89886 | 408 ft | 0 kts | 206° |
| 2026-05-04 06:05 | 51.09918 | 16.89776 | 408 ft | 3 kts | 252° |
| 2026-05-04 06:05 | 51.09952 | 16.89607 | 406 ft | 32 kts | 294° |
| 2026-05-04 06:05 | 51.10159 | 16.88931 | 408 ft | 103 kts | 296° |
| 2026-05-04 06:06 | 51.10569 | 16.87592 | 403 ft | 165 kts | 296° |
| 2026-05-04 06:06 | 51.11141 | 16.85750 | 555 ft | 200 kts | 301° |
| 2026-05-04 06:06 | 51.11782 | 16.83847 | 1274 ft | 196 kts | 298° |
| 2026-05-04 06:06 | 51.12414 | 16.81865 | 1745 ft | 208 kts | 290° |
| 2026-05-04 06:07 | 51.12958 | 16.79765 | 2662 ft | 205 kts | 292° |
| 2026-05-04 06:07 | 51.13584 | 16.77680 | 3486 ft | 212 kts | 294° |
| 2026-05-04 06:07 | 51.14261 | 16.75515 | 4191 ft | 231 kts | 294° |
| 2026-05-04 06:07 | 51.15010 | 16.73052 | 4627 ft | 259 kts | 294° |
| 2026-05-04 06:08 | 51.15795 | 16.70465 | 5643 ft | 262 kts | 294° |
| 2026-05-04 06:08 | 51.16604 | 16.67808 | 6527 ft | 271 kts | 293° |
| 2026-05-04 06:08 | 51.17436 | 16.65076 | 7457 ft | 275 kts | 293° |
| 2026-05-04 06:08 | 51.18268 | 16.62356 | 8359 ft | 279 kts | 295° |
| 2026-05-04 06:09 | 51.19560 | 16.60021 | 9218 ft | 288 kts | 322° |
| 2026-05-04 06:09 | 51.21406 | 16.58692 | 10053 ft | 299 kts | 348° |
| 2026-05-04 06:11 | 51.34707 | 16.70241 | 15265 ft | 338 kts | 64° |
| 2026-05-04 06:11 | 51.35342 | 16.73849 | 15801 ft | 344 kts | 89° |
| 2026-05-04 06:13 | 51.27934 | 17.00942 | 19251 ft | 402 kts | 119° |
| 2026-05-04 06:14 | 51.16709 | 17.20786 | 22510 ft | 415 kts | 141° |
| 2026-05-04 06:14 | 51.14548 | 17.23874 | 23040 ft | 419 kts | 140° |
| 2026-05-04 06:15 | 51.12365 | 17.26975 | 23578 ft | 422 kts | 141° |
| 2026-05-04 06:15 | 51.10162 | 17.30084 | 24003 ft | 425 kts | 141° |
| 2026-05-04 06:15 | 51.07945 | 17.33215 | 24452 ft | 427 kts | 141° |
| 2026-05-04 06:15 | 51.05716 | 17.36366 | 24873 ft | 430 kts | 140° |
| 2026-05-04 06:16 | 51.03505 | 17.39487 | 25283 ft | 432 kts | 141° |
| 2026-05-04 06:16 | 51.01244 | 17.42670 | 25699 ft | 435 kts | 141° |
| 2026-05-04 06:16 | 50.98971 | 17.45864 | 26100 ft | 437 kts | 140° |
| 2026-05-04 06:16 | 50.96687 | 17.49073 | 26510 ft | 440 kts | 140° |
| 2026-05-04 06:17 | 50.94388 | 17.52296 | 26904 ft | 442 kts | 141° |
| 2026-05-04 06:17 | 50.92073 | 17.55539 | 27273 ft | 444 kts | 140° |
| 2026-05-04 06:17 | 50.89748 | 17.58791 | 27665 ft | 447 kts | 140° |
| 2026-05-04 06:17 | 50.87415 | 17.62048 | 28009 ft | 449 kts | 140° |
| 2026-05-04 06:18 | 50.85060 | 17.65333 | 28365 ft | 452 kts | 140° |
| 2026-05-04 06:18 | 50.82697 | 17.68624 | 28724 ft | 454 kts | 140° |
| 2026-05-04 06:18 | 50.80319 | 17.71931 | 29057 ft | 457 kts | 140° |
| 2026-05-04 06:20 | 50.63314 | 17.95447 | 31119 ft | 473 kts | 140° |
| 2026-05-04 06:20 | 50.60842 | 17.98891 | 31383 ft | 475 kts | 136° |
| 2026-05-04 06:21 | 50.54577 | 18.17319 | 32304 ft | 486 kts | 112° |
| 2026-05-04 06:21 | 50.53241 | 18.22208 | 32519 ft | 488 kts | 119° |
| 2026-05-04 06:22 | 50.51390 | 18.26664 | 32756 ft | 488 kts | 131° |
| 2026-05-04 06:22 | 50.49093 | 18.30584 | 32906 ft | 490 kts | 134° |
| 2026-05-04 06:25 | 50.18255 | 18.80890 | 36117 ft | 491 kts | 134° |
| 2026-05-04 06:25 | 50.15881 | 18.84723 | 36340 ft | 491 kts | 134° |
| 2026-05-04 06:26 | 50.13505 | 18.88554 | 36551 ft | 491 kts | 134° |
| 2026-05-04 06:26 | 50.11158 | 18.92332 | 36778 ft | 491 kts | 134° |
| 2026-05-04 06:26 | 50.08784 | 18.96148 | 36990 ft | 490 kts | 134° |
| 2026-05-04 06:27 | 49.96887 | 19.15184 | 37051 ft | 489 kts | 134° |
| 2026-05-04 06:28 | 49.92134 | 19.22750 | 37054 ft | 488 kts | 134° |
| 2026-05-04 06:28 | 49.87382 | 19.30291 | 37056 ft | 488 kts | 134° |
| 2026-05-04 06:29 | 49.82631 | 19.37808 | 37059 ft | 488 kts | 134° |
| 2026-05-04 06:29 | 49.77877 | 19.45307 | 37061 ft | 488 kts | 134° |
| 2026-05-04 06:30 | 49.73138 | 19.52761 | 37071 ft | 490 kts | 134° |
| 2026-05-04 06:30 | 49.68348 | 19.60271 | 37073 ft | 490 kts | 134° |
| 2026-05-04 06:31 | 49.63565 | 19.67749 | 37075 ft | 490 kts | 134° |
| 2026-05-04 06:31 | 49.59582 | 19.73960 | 37078 ft | 488 kts | 134° |
| 2026-05-04 06:33 | 49.40433 | 20.03604 | 37098 ft | 489 kts | 134° |
| 2026-05-04 06:34 | 49.35624 | 20.10994 | 37109 ft | 489 kts | 134° |
| 2026-05-04 06:34 | 49.30802 | 20.18382 | 37120 ft | 489 kts | 134° |
| 2026-05-04 06:36 | 49.11705 | 20.48018 | 37134 ft | 490 kts | 134° |
| 2026-05-04 06:37 | 49.06906 | 20.55400 | 37134 ft | 490 kts | 134° |
| 2026-05-04 06:37 | 49.02107 | 20.62771 | 37133 ft | 489 kts | 134° |
| 2026-05-04 06:38 | 48.97304 | 20.70119 | 37135 ft | 489 kts | 134° |
| 2026-05-04 06:40 | 48.78036 | 20.99399 | 37159 ft | 490 kts | 134° |
| 2026-05-04 06:40 | 48.73202 | 21.06691 | 37165 ft | 490 kts | 134° |
| 2026-05-04 06:41 | 48.68397 | 21.13920 | 37163 ft | 490 kts | 134° |
| 2026-05-04 06:41 | 48.63558 | 21.21179 | 37166 ft | 489 kts | 134° |
| 2026-05-04 06:42 | 48.58717 | 21.28419 | 37166 ft | 488 kts | 134° |
| 2026-05-04 06:44 | 48.39397 | 21.57114 | 37166 ft | 487 kts | 134° |
| 2026-05-04 06:44 | 48.34552 | 21.64257 | 37166 ft | 487 kts | 134° |
| 2026-05-04 06:45 | 48.29742 | 21.71331 | 37172 ft | 487 kts | 134° |
| 2026-05-04 06:45 | 48.24901 | 21.78430 | 37171 ft | 486 kts | 134° |
| 2026-05-04 06:46 | 48.20056 | 21.85517 | 37170 ft | 486 kts | 134° |
| 2026-05-04 06:46 | 48.15212 | 21.92581 | 37155 ft | 487 kts | 134° |
| 2026-05-04 06:48 | 47.95790 | 22.20708 | 37171 ft | 486 kts | 134° |
| 2026-05-04 06:50 | 47.76744 | 22.49186 | 37170 ft | 483 kts | 126° |
| 2026-05-04 06:51 | 47.72559 | 22.57010 | 37186 ft | 483 kts | 126° |
| 2026-05-04 06:51 | 47.68372 | 22.64821 | 37195 ft | 482 kts | 126° |
| 2026-05-04 06:52 | 47.64220 | 22.72544 | 37188 ft | 481 kts | 126° |
| 2026-05-04 06:52 | 47.60040 | 22.80299 | 37194 ft | 482 kts | 126° |
| 2026-05-04 06:53 | 47.55847 | 22.88054 | 37189 ft | 482 kts | 126° |
| 2026-05-04 06:53 | 47.51655 | 22.95784 | 37189 ft | 481 kts | 126° |
| 2026-05-04 06:54 | 47.47455 | 23.03509 | 37186 ft | 481 kts | 126° |
| 2026-05-04 06:54 | 47.43277 | 23.11171 | 37179 ft | 481 kts | 126° |
| 2026-05-04 06:55 | 47.39068 | 23.18868 | 37173 ft | 481 kts | 126° |
| 2026-05-04 06:55 | 47.34850 | 23.26560 | 37171 ft | 482 kts | 126° |
| 2026-05-04 06:57 | 47.17918 | 23.57221 | 37154 ft | 483 kts | 127° |
| 2026-05-04 06:58 | 47.13689 | 23.64827 | 37158 ft | 484 kts | 127° |
| 2026-05-04 06:58 | 47.09422 | 23.72479 | 37154 ft | 484 kts | 127° |
| 2026-05-04 06:59 | 47.05145 | 23.80126 | 37152 ft | 484 kts | 127° |
| 2026-05-04 06:59 | 47.00866 | 23.87757 | 37154 ft | 485 kts | 127° |
| 2026-05-04 07:01 | 46.83700 | 24.18155 | 37150 ft | 485 kts | 127° |
| 2026-05-04 07:02 | 46.79394 | 24.25728 | 37146 ft | 484 kts | 127° |
| 2026-05-04 07:02 | 46.75094 | 24.33269 | 37149 ft | 483 kts | 127° |
| 2026-05-04 07:03 | 46.70789 | 24.40800 | 37162 ft | 483 kts | 127° |
| 2026-05-04 07:03 | 46.66493 | 24.48292 | 37148 ft | 483 kts | 127° |
| 2026-05-04 07:04 | 46.62184 | 24.55788 | 37161 ft | 482 kts | 127° |
| 2026-05-04 07:04 | 46.57874 | 24.63264 | 37159 ft | 481 kts | 127° |
| 2026-05-04 07:05 | 46.53563 | 24.70722 | 37155 ft | 480 kts | 127° |
| 2026-05-04 07:05 | 46.49262 | 24.78143 | 37156 ft | 480 kts | 127° |
| 2026-05-04 07:06 | 46.42796 | 24.89262 | 37148 ft | 481 kts | 127° |
| 2026-05-04 07:07 | 46.38475 | 24.96668 | 37139 ft | 481 kts | 127° |
| 2026-05-04 07:09 | 46.21196 | 25.26082 | 37141 ft | 480 kts | 128° |
| 2026-05-04 07:09 | 46.16855 | 25.33423 | 37135 ft | 480 kts | 128° |
| 2026-05-04 07:10 | 46.12516 | 25.40742 | 37138 ft | 479 kts | 128° |
| 2026-05-04 07:12 | 45.95162 | 25.69816 | 37130 ft | 479 kts | 128° |
| 2026-05-04 07:12 | 45.90840 | 25.77012 | 37132 ft | 479 kts | 128° |
| 2026-05-04 07:13 | 45.86486 | 25.84240 | 37134 ft | 478 kts | 128° |
| 2026-05-04 07:13 | 45.82115 | 25.91478 | 37139 ft | 480 kts | 128° |
| 2026-05-04 07:14 | 45.71152 | 26.09547 | 37125 ft | 480 kts | 129° |
| 2026-05-04 07:15 | 45.66765 | 26.16745 | 37112 ft | 479 kts | 129° |
| 2026-05-04 07:15 | 45.62388 | 26.23908 | 37101 ft | 478 kts | 129° |
| 2026-05-04 07:16 | 45.58036 | 26.31013 | 37094 ft | 477 kts | 129° |
| 2026-05-04 07:16 | 45.53669 | 26.38123 | 37088 ft | 475 kts | 129° |
| 2026-05-04 07:17 | 45.50035 | 26.44025 | 37078 ft | 475 kts | 129° |
| 2026-05-04 07:17 | 45.45671 | 26.51097 | 37069 ft | 475 kts | 129° |
| 2026-05-04 07:18 | 45.41302 | 26.58160 | 37069 ft | 475 kts | 129° |
| 2026-05-04 07:18 | 45.36225 | 26.66343 | 37068 ft | 474 kts | 129° |
| 2026-05-04 07:19 | 45.32559 | 26.72238 | 37071 ft | 475 kts | 130° |
| 2026-05-04 07:19 | 45.28204 | 26.79225 | 37074 ft | 476 kts | 130° |
| 2026-05-04 07:20 | 45.23801 | 26.86269 | 37073 ft | 477 kts | 130° |
| 2026-05-04 07:20 | 45.19389 | 26.93312 | 37077 ft | 478 kts | 130° |
| 2026-05-04 07:22 | 45.01677 | 27.21404 | 37077 ft | 478 kts | 131° |
| 2026-05-04 07:23 | 44.97236 | 27.28402 | 37073 ft | 477 kts | 131° |
| 2026-05-04 07:23 | 44.92795 | 27.35384 | 37079 ft | 477 kts | 131° |
| 2026-05-04 07:24 | 44.88366 | 27.42330 | 37071 ft | 476 kts | 131° |
| 2026-05-04 07:24 | 44.83933 | 27.49265 | 37084 ft | 475 kts | 131° |
| 2026-05-04 07:26 | 44.66290 | 27.76693 | 37071 ft | 470 kts | 131° |
| 2026-05-04 07:27 | 44.61897 | 27.83481 | 37067 ft | 469 kts | 131° |
| 2026-05-04 07:27 | 44.57536 | 27.90204 | 37053 ft | 468 kts | 131° |
| 2026-05-04 07:28 | 44.53144 | 27.96958 | 37062 ft | 468 kts | 131° |
| 2026-05-04 07:28 | 44.48750 | 28.03698 | 37058 ft | 468 kts | 131° |
| 2026-05-04 07:29 | 44.44358 | 28.10420 | 37058 ft | 467 kts | 131° |
| 2026-05-04 07:29 | 44.39974 | 28.17113 | 37057 ft | 466 kts | 131° |
| 2026-05-04 07:30 | 44.35589 | 28.23791 | 37055 ft | 466 kts | 131° |
| 2026-05-04 07:30 | 44.31234 | 28.30408 | 37058 ft | 465 kts | 131° |
| 2026-05-04 07:31 | 44.26849 | 28.37055 | 37059 ft | 465 kts | 131° |
| 2026-05-04 07:33 | 44.09295 | 28.63509 | 37042 ft | 464 kts | 131° |
| 2026-05-04 07:33 | 44.04931 | 28.70047 | 37042 ft | 464 kts | 131° |
| 2026-05-04 07:34 | 44.00534 | 28.76618 | 37045 ft | 464 kts | 131° |
| 2026-05-04 07:34 | 43.96130 | 28.83184 | 37044 ft | 464 kts | 131° |
| 2026-05-04 07:35 | 43.91735 | 28.89723 | 37041 ft | 463 kts | 131° |
| 2026-05-04 07:35 | 43.87336 | 28.96251 | 37041 ft | 463 kts | 131° |
| 2026-05-04 07:36 | 43.82939 | 29.02763 | 37042 ft | 463 kts | 131° |
| 2026-05-04 07:38 | 43.65280 | 29.28760 | 37033 ft | 465 kts | 131° |
| 2026-05-04 07:38 | 43.60844 | 29.35254 | 37025 ft | 465 kts | 131° |
| 2026-05-04 07:39 | 43.56404 | 29.41738 | 37020 ft | 464 kts | 131° |
| 2026-05-04 07:39 | 43.51973 | 29.48193 | 37007 ft | 463 kts | 131° |
| 2026-05-04 07:40 | 43.47543 | 29.54634 | 36999 ft | 463 kts | 131° |
| 2026-05-04 07:40 | 43.43108 | 29.61067 | 36998 ft | 464 kts | 131° |
| 2026-05-04 07:41 | 43.38687 | 29.67465 | 36996 ft | 465 kts | 131° |
| 2026-05-04 07:41 | 43.34217 | 29.73918 | 36995 ft | 467 kts | 131° |
| 2026-05-04 07:42 | 43.29738 | 29.80370 | 36996 ft | 467 kts | 131° |
| 2026-05-04 07:42 | 43.25249 | 29.86822 | 36993 ft | 467 kts | 131° |
| 2026-05-04 07:43 | 43.20752 | 29.93270 | 36992 ft | 467 kts | 131° |
| 2026-05-04 07:43 | 43.16250 | 29.99711 | 36982 ft | 468 kts | 131° |
| 2026-05-04 07:44 | 43.11770 | 30.06106 | 36978 ft | 468 kts | 131° |
| 2026-05-04 07:44 | 43.07262 | 30.12526 | 36979 ft | 468 kts | 131° |
| 2026-05-04 07:45 | 43.02743 | 30.18948 | 36963 ft | 468 kts | 131° |
| 2026-05-04 07:45 | 42.98218 | 30.25363 | 36966 ft | 468 kts | 131° |
| 2026-05-04 07:46 | 42.93684 | 30.31777 | 36965 ft | 469 kts | 131° |
| 2026-05-04 07:46 | 42.89180 | 30.38133 | 36955 ft | 469 kts | 131° |
| 2026-05-04 07:47 | 42.84639 | 30.44529 | 36950 ft | 470 kts | 131° |
| 2026-05-04 07:49 | 42.71146 | 30.73657 | 36933 ft | 461 kts | 103° |
| 2026-05-04 07:49 | 42.69506 | 30.82097 | 36926 ft | 462 kts | 103° |
| 2026-05-04 07:50 | 42.67842 | 30.90528 | 36926 ft | 462 kts | 103° |
| 2026-05-04 07:50 | 42.66179 | 30.98965 | 36920 ft | 462 kts | 103° |
| 2026-05-04 07:51 | 42.64502 | 31.07413 | 36921 ft | 462 kts | 103° |
| 2026-05-04 07:51 | 42.62823 | 31.15846 | 36918 ft | 462 kts | 103° |
| 2026-05-04 07:52 | 42.61137 | 31.24276 | 36914 ft | 463 kts | 103° |
| 2026-05-04 07:52 | 42.59454 | 31.32654 | 36906 ft | 463 kts | 103° |
| 2026-05-04 07:54 | 42.52614 | 31.66360 | 36890 ft | 464 kts | 103° |
| 2026-05-04 07:55 | 42.50894 | 31.74747 | 36888 ft | 465 kts | 104° |
| 2026-05-04 07:55 | 42.49157 | 31.83186 | 36889 ft | 466 kts | 104° |
| 2026-05-04 07:56 | 42.47408 | 31.91641 | 36882 ft | 466 kts | 104° |
| 2026-05-04 07:56 | 42.45654 | 32.00092 | 36878 ft | 467 kts | 104° |
| 2026-05-04 07:57 | 42.43891 | 32.08548 | 36877 ft | 467 kts | 104° |
| 2026-05-04 07:57 | 42.42120 | 32.17010 | 36872 ft | 467 kts | 104° |
| 2026-05-04 07:58 | 42.40340 | 32.25478 | 36871 ft | 468 kts | 104° |
| 2026-05-04 07:58 | 42.38565 | 32.33891 | 36857 ft | 468 kts | 104° |
| 2026-05-04 07:59 | 42.36774 | 32.42347 | 36854 ft | 468 kts | 104° |
| 2026-05-04 07:59 | 42.34975 | 32.50804 | 36854 ft | 468 kts | 105° |
| 2026-05-04 08:00 | 42.33262 | 32.59286 | 36870 ft | 466 kts | 97° |
| 2026-05-04 08:02 | 42.29318 | 32.94013 | 36840 ft | 468 kts | 98° |
| 2026-05-04 08:02 | 42.28316 | 33.02707 | 36833 ft | 468 kts | 98° |
| 2026-05-04 08:03 | 42.27307 | 33.11385 | 36827 ft | 468 kts | 98° |
| 2026-05-04 08:03 | 42.26297 | 33.20018 | 36819 ft | 467 kts | 98° |
| 2026-05-04 08:04 | 42.25276 | 33.28680 | 36817 ft | 468 kts | 98° |
| 2026-05-04 08:04 | 42.24246 | 33.37369 | 36815 ft | 469 kts | 98° |
| 2026-05-04 08:05 | 42.23209 | 33.46056 | 36811 ft | 469 kts | 99° |
| 2026-05-04 08:05 | 42.22165 | 33.54743 | 36810 ft | 468 kts | 99° |
| 2026-05-04 08:06 | 42.21116 | 33.63416 | 36803 ft | 469 kts | 99° |
| 2026-05-04 08:06 | 42.20238 | 33.70637 | 36802 ft | 469 kts | 99° |
| 2026-05-04 08:08 | 42.15952 | 34.05330 | 36797 ft | 469 kts | 99° |
| 2026-05-04 08:11 | 42.11008 | 34.44294 | 36799 ft | 470 kts | 100° |
| 2026-05-04 08:11 | 42.09202 | 34.57272 | 36797 ft | 470 kts | 101° |
| 2026-05-04 08:12 | 42.08015 | 34.65938 | 36796 ft | 470 kts | 101° |
| 2026-05-04 08:12 | 42.06798 | 34.74596 | 36802 ft | 472 kts | 101° |
| 2026-05-04 08:13 | 42.05585 | 34.83273 | 36802 ft | 472 kts | 101° |
| 2026-05-04 08:13 | 42.04389 | 34.91970 | 36805 ft | 471 kts | 100° |
| 2026-05-04 08:14 | 42.03258 | 35.00593 | 36800 ft | 471 kts | 101° |
| 2026-05-04 08:16 | 42.00809 | 35.35819 | 36811 ft | 474 kts | 95° |
| 2026-05-04 08:16 | 42.00319 | 35.44674 | 36813 ft | 475 kts | 95° |
| 2026-05-04 08:17 | 41.99831 | 35.53534 | 36811 ft | 475 kts | 96° |
| 2026-05-04 08:17 | 41.99333 | 35.62342 | 36803 ft | 475 kts | 96° |
| 2026-05-04 08:19 | 41.97272 | 35.97758 | 36799 ft | 474 kts | 96° |
| 2026-05-04 08:20 | 41.96744 | 36.06541 | 36802 ft | 474 kts | 96° |
| 2026-05-04 08:20 | 41.96207 | 36.15364 | 36801 ft | 474 kts | 97° |
| 2026-05-04 08:21 | 41.95661 | 36.24206 | 36803 ft | 475 kts | 97° |
| 2026-05-04 08:21 | 41.95108 | 36.33059 | 36801 ft | 474 kts | 97° |
| 2026-05-04 08:22 | 41.94553 | 36.41834 | 36800 ft | 474 kts | 97° |
| 2026-05-04 08:24 | 41.92249 | 36.77167 | 36804 ft | 473 kts | 97° |
| 2026-05-04 08:24 | 41.91658 | 36.85966 | 36809 ft | 473 kts | 97° |
| 2026-05-04 08:25 | 41.91059 | 36.94786 | 36808 ft | 474 kts | 98° |
| 2026-05-04 08:25 | 41.90454 | 37.03604 | 36811 ft | 475 kts | 97° |
| 2026-05-04 08:27 | 41.89875 | 37.39155 | 36813 ft | 477 kts | 94° |
| 2026-05-04 08:28 | 41.89728 | 37.48072 | 36812 ft | 477 kts | 94° |
| 2026-05-04 08:28 | 41.89572 | 37.56971 | 36815 ft | 477 kts | 95° |
| 2026-05-04 08:29 | 41.89410 | 37.65865 | 36812 ft | 477 kts | 95° |
| 2026-05-04 08:31 | 41.88693 | 38.01361 | 36819 ft | 476 kts | 95° |
| 2026-05-04 08:33 | 41.87866 | 38.36882 | 36822 ft | 476 kts | 96° |
| 2026-05-04 08:35 | 41.86930 | 38.72396 | 36820 ft | 477 kts | 96° |
| 2026-05-04 08:35 | 41.86678 | 38.81307 | 36831 ft | 478 kts | 96° |
| 2026-05-04 08:37 | 41.85742 | 39.12475 | 36837 ft | 479 kts | 96° |
| 2026-05-04 08:38 | 41.85458 | 39.21407 | 36835 ft | 479 kts | 96° |
| 2026-05-04 08:38 | 41.85168 | 39.30333 | 36834 ft | 480 kts | 96° |
| 2026-05-04 08:40 | 41.83928 | 39.66294 | 36848 ft | 484 kts | 96° |
| 2026-05-04 08:41 | 41.83600 | 39.75334 | 36842 ft | 485 kts | 96° |
| 2026-05-04 08:41 | 41.83264 | 39.84366 | 36838 ft | 485 kts | 97° |
| 2026-05-04 08:42 | 41.82920 | 39.93421 | 36839 ft | 487 kts | 97° |
| 2026-05-04 08:42 | 41.82571 | 40.02441 | 36839 ft | 487 kts | 97° |
| 2026-05-04 08:43 | 41.82213 | 40.11510 | 36835 ft | 488 kts | 97° |
| 2026-05-04 08:43 | 41.81845 | 40.20601 | 36836 ft | 488 kts | 97° |
| 2026-05-04 08:44 | 41.81471 | 40.29687 | 36836 ft | 489 kts | 97° |
| 2026-05-04 08:46 | 41.79893 | 40.66174 | 36839 ft | 491 kts | 97° |
| 2026-05-04 08:46 | 41.79454 | 40.75254 | 36836 ft | 491 kts | 97° |
| 2026-05-04 08:47 | 41.79005 | 40.84386 | 36840 ft | 491 kts | 97° |
| 2026-05-04 08:47 | 41.78552 | 40.93515 | 36839 ft | 492 kts | 98° |
| 2026-05-04 08:48 | 41.78087 | 41.02668 | 36839 ft | 492 kts | 98° |
| 2026-05-04 08:48 | 41.77618 | 41.11821 | 36837 ft | 493 kts | 98° |
| 2026-05-04 08:49 | 41.77138 | 41.20992 | 36834 ft | 493 kts | 98° |
| 2026-05-04 08:50 | 41.75402 | 41.53127 | 36826 ft | 494 kts | 98° |
| 2026-05-04 08:51 | 41.74891 | 41.62260 | 36819 ft | 495 kts | 98° |
| 2026-05-04 08:51 | 41.74370 | 41.71465 | 36821 ft | 497 kts | 98° |
| 2026-05-04 08:52 | 41.73839 | 41.80707 | 36818 ft | 498 kts | 98° |
| 2026-05-04 08:52 | 41.73300 | 41.89950 | 36810 ft | 499 kts | 98° |
| 2026-05-04 08:54 | 41.71060 | 42.27059 | 36766 ft | 501 kts | 99° |
| 2026-05-04 08:55 | 41.70478 | 42.36379 | 36761 ft | 502 kts | 99° |
| 2026-05-04 08:55 | 41.69988 | 42.44128 | 36751 ft | 502 kts | 99° |
| 2026-05-04 09:01 | 41.63296 | 43.42472 | 36755 ft | 507 kts | 100° |
| 2026-05-04 09:01 | 41.62612 | 43.51858 | 36768 ft | 508 kts | 100° |
| 2026-05-04 09:02 | 41.61928 | 43.61210 | 36787 ft | 508 kts | 100° |
| 2026-05-04 09:02 | 41.61230 | 43.70622 | 36809 ft | 509 kts | 100° |
| 2026-05-04 09:03 | 41.60525 | 43.80038 | 36829 ft | 510 kts | 100° |
| 2026-05-04 09:03 | 41.59812 | 43.89455 | 36859 ft | 508 kts | 100° |
| 2026-05-04 09:04 | 41.59088 | 43.98886 | 36870 ft | 511 kts | 101° |
| 2026-05-04 09:04 | 41.58359 | 44.08325 | 36896 ft | 511 kts | 101° |
| 2026-05-04 09:05 | 41.57622 | 44.17723 | 36915 ft | 512 kts | 101° |
| 2026-05-04 09:05 | 41.56264 | 44.26948 | 36949 ft | 503 kts | 113° |
| 2026-05-04 09:06 | 41.54063 | 44.35835 | 36959 ft | 504 kts | 114° |
| 2026-05-04 09:08 | 41.45219 | 44.71346 | 36952 ft | 505 kts | 114° |
| 2026-05-04 09:08 | 41.42984 | 44.80225 | 36950 ft | 505 kts | 114° |
| 2026-05-04 09:09 | 41.40744 | 44.89106 | 36951 ft | 505 kts | 114° |
| 2026-05-04 09:09 | 41.38495 | 44.97981 | 36945 ft | 506 kts | 114° |
| 2026-05-04 09:10 | 41.36241 | 45.06847 | 36948 ft | 506 kts | 114° |
| 2026-05-04 09:10 | 41.33990 | 45.15658 | 36948 ft | 506 kts | 114° |
| 2026-05-04 09:11 | 41.31715 | 45.24531 | 36943 ft | 506 kts | 114° |
| 2026-05-04 09:11 | 41.29433 | 45.33398 | 36938 ft | 507 kts | 114° |
| 2026-05-04 09:12 | 41.27142 | 45.42267 | 36944 ft | 507 kts | 114° |
| 2026-05-04 09:14 | 41.17894 | 45.77693 | 36941 ft | 508 kts | 114° |
| 2026-05-04 09:14 | 41.15560 | 45.86540 | 36942 ft | 508 kts | 114° |
| 2026-05-04 09:15 | 41.13229 | 45.95332 | 36941 ft | 508 kts | 114° |
| 2026-05-04 09:15 | 41.10882 | 46.04155 | 36939 ft | 508 kts | 114° |
| 2026-05-04 09:17 | 41.00244 | 46.43941 | 36935 ft | 510 kts | 115° |
| 2026-05-04 09:18 | 40.97867 | 46.52777 | 36939 ft | 510 kts | 115° |
| 2026-05-04 09:18 | 40.95503 | 46.61570 | 36939 ft | 510 kts | 115° |
| 2026-05-04 09:19 | 40.93108 | 46.70427 | 36943 ft | 511 kts | 115° |
| 2026-05-04 09:19 | 40.91054 | 46.79447 | 36984 ft | 518 kts | 102° |
| 2026-05-04 09:20 | 40.90815 | 46.84234 | 36982 ft | 526 kts | 91° |
| 2026-05-04 09:20 | 40.91226 | 46.89068 | 36974 ft | 532 kts | 79° |
| 2026-05-04 09:20 | 40.92962 | 46.98597 | 36952 ft | 533 kts | 79° |
| 2026-05-04 09:21 | 40.94735 | 47.08116 | 36948 ft | 532 kts | 79° |
| 2026-05-04 09:21 | 40.96465 | 47.17563 | 36942 ft | 532 kts | 79° |
| 2026-05-04 09:22 | 40.98207 | 47.27059 | 36939 ft | 525 kts | 79° |
| 2026-05-04 09:22 | 40.99917 | 47.36466 | 36933 ft | 530 kts | 79° |
| 2026-05-04 09:23 | 41.01646 | 47.46002 | 36938 ft | 537 kts | 79° |
| 2026-05-04 09:23 | 41.03382 | 47.55629 | 36919 ft | 534 kts | 78° |
| 2026-05-04 09:25 | 41.10102 | 47.93354 | 36873 ft | 522 kts | 76° |
| 2026-05-04 09:26 | 41.11315 | 47.97895 | 36898 ft | 526 kts | 63° |
| 2026-05-04 09:26 | 41.13170 | 48.02092 | 36907 ft | 529 kts | 53° |
| 2026-05-04 09:26 | 41.17509 | 48.09973 | 36870 ft | 528 kts | 53° |
| 2026-05-04 09:27 | 41.21843 | 48.17822 | 36868 ft | 526 kts | 54° |
| 2026-05-04 09:27 | 41.26147 | 48.25677 | 36862 ft | 526 kts | 54° |
| 2026-05-04 09:28 | 41.30463 | 48.33547 | 36854 ft | 527 kts | 54° |
| 2026-05-04 09:28 | 41.34772 | 48.41442 | 36864 ft | 528 kts | 54° |
| 2026-05-04 09:29 | 41.39061 | 48.49309 | 36866 ft | 528 kts | 54° |
| 2026-05-04 09:29 | 41.43355 | 48.57206 | 36871 ft | 527 kts | 54° |
| 2026-05-04 09:30 | 41.47773 | 48.65031 | 36882 ft | 528 kts | 53° |
| 2026-05-04 09:30 | 41.52148 | 48.72906 | 36891 ft | 528 kts | 54° |
| 2026-05-04 09:31 | 41.56276 | 48.81008 | 36895 ft | 528 kts | 56° |
| 2026-05-04 09:31 | 41.60399 | 48.89133 | 36898 ft | 528 kts | 57° |
| 2026-05-04 09:32 | 41.64480 | 48.97299 | 36897 ft | 527 kts | 57° |
| 2026-05-04 09:34 | 41.80680 | 49.29741 | 36891 ft | 523 kts | 57° |
| 2026-05-04 09:34 | 41.84970 | 49.37613 | 36904 ft | 524 kts | 54° |
| 2026-05-04 09:35 | 41.89252 | 49.45531 | 36911 ft | 524 kts | 54° |
| 2026-05-04 09:35 | 41.93567 | 49.53409 | 36909 ft | 523 kts | 54° |
| 2026-05-04 09:37 | 42.10644 | 49.85003 | 36908 ft | 522 kts | 54° |
| 2026-05-04 09:38 | 42.14896 | 49.92919 | 36908 ft | 521 kts | 54° |
| 2026-05-04 09:38 | 42.19143 | 50.00844 | 36905 ft | 520 kts | 54° |
| 2026-05-04 09:39 | 42.23375 | 50.08763 | 36905 ft | 519 kts | 54° |
| 2026-05-04 09:39 | 42.27602 | 50.16692 | 36906 ft | 519 kts | 54° |
| 2026-05-04 09:40 | 42.31781 | 50.24551 | 36907 ft | 519 kts | 54° |
| 2026-05-04 09:40 | 42.36023 | 50.32552 | 36921 ft | 528 kts | 54° |
| 2026-05-04 09:42 | 42.53927 | 50.64949 | 36919 ft | 538 kts | 52° |
| 2026-05-04 09:43 | 42.58507 | 50.72983 | 36923 ft | 537 kts | 52° |
| 2026-05-04 09:43 | 42.63071 | 50.81026 | 36923 ft | 537 kts | 52° |
| 2026-05-04 09:44 | 42.66866 | 50.87710 | 36922 ft | 537 kts | 52° |
| 2026-05-04 09:46 | 42.85121 | 51.20137 | 36925 ft | 540 kts | 53° |
| 2026-05-04 09:46 | 42.89683 | 51.28297 | 36917 ft | 541 kts | 53° |
| 2026-05-04 09:47 | 42.94238 | 51.36463 | 36910 ft | 541 kts | 53° |
| 2026-05-04 09:49 | 43.12424 | 51.69300 | 36899 ft | 541 kts | 53° |
| 2026-05-04 09:51 | 43.28236 | 51.98149 | 36892 ft | 541 kts | 53° |
| 2026-05-04 09:51 | 43.32732 | 52.06403 | 36887 ft | 538 kts | 53° |
| 2026-05-04 09:52 | 43.37198 | 52.14626 | 36880 ft | 537 kts | 53° |
| 2026-05-04 09:52 | 43.41633 | 52.22814 | 36876 ft | 537 kts | 53° |
| 2026-05-04 09:53 | 43.46095 | 52.31076 | 36875 ft | 537 kts | 53° |
| 2026-05-04 09:53 | 43.50546 | 52.39340 | 36875 ft | 537 kts | 53° |
| 2026-05-04 09:54 | 43.54984 | 52.47604 | 36869 ft | 535 kts | 53° |
| 2026-05-04 09:54 | 43.59413 | 52.55872 | 36879 ft | 535 kts | 53° |
| 2026-05-04 09:55 | 43.63792 | 52.64073 | 36870 ft | 534 kts | 53° |
| 2026-05-04 09:55 | 43.68190 | 52.72339 | 36866 ft | 534 kts | 53° |
| 2026-05-04 09:55 | 43.70377 | 52.76478 | 36972 ft | 530 kts | 54° |
| 2026-05-04 09:56 | 43.72539 | 52.80572 | 37227 ft | 525 kts | 54° |
| 2026-05-04 09:56 | 43.74693 | 52.84649 | 37492 ft | 524 kts | 54° |
| 2026-05-04 09:56 | 43.76843 | 52.88722 | 37750 ft | 523 kts | 54° |
| 2026-05-04 09:56 | 43.78984 | 52.92790 | 38010 ft | 522 kts | 54° |
| 2026-05-04 09:57 | 43.81118 | 52.96852 | 38271 ft | 521 kts | 54° |
| 2026-05-04 09:57 | 43.83250 | 53.00912 | 38526 ft | 520 kts | 54° |
| 2026-05-04 09:57 | 43.85372 | 53.04959 | 38744 ft | 519 kts | 54° |
| 2026-05-04 09:57 | 43.87492 | 53.09007 | 38863 ft | 520 kts | 54° |
| 2026-05-04 09:58 | 43.89626 | 53.13090 | 38863 ft | 523 kts | 54° |
| 2026-05-04 09:58 | 43.93869 | 53.21227 | 38862 ft | 524 kts | 54° |
| 2026-05-04 10:00 | 44.11088 | 53.54484 | 38883 ft | 534 kts | 54° |